createdAt,value
2023-01-29T00:01:06.870Z,101812.81
2023-01-29T00:04:36.166Z,101817.61
2023-01-29T00:07:53.299Z,101814.66
2023-01-29T00:11:22.396Z,101811.25
2023-01-29T00:14:35.888Z,101803.31
2023-01-29T00:18:05.104Z,101797.05
2023-01-29T00:21:34.360Z,101797.67
2023-01-29T00:24:56.516Z,101800.64
2023-01-29T00:28:05.505Z,101802.17
2023-01-29T00:31:18.212Z,101801.57
2023-01-29T00:34:47.588Z,101805.27
2023-01-29T00:38:16.882Z,101799.73
2023-01-29T00:41:07.177Z,101804.27
2023-01-29T00:44:34.496Z,101804.63
2023-01-29T00:48:03.314Z,101806.30
2023-01-29T00:51:16.760Z,101808.77
2023-01-29T00:54:45.955Z,101816.16
2023-01-29T00:58:13.956Z,101818.13
2023-01-29T01:00:56.215Z,101819.05
2023-01-29T01:04:00.672Z,101820.94
2023-01-29T01:07:02.720Z,101827.79
2023-01-29T01:10:05.395Z,101833.98
2023-01-29T01:13:18.690Z,101835.87
2023-01-29T01:15:57.764Z,101841.85
2023-01-29T01:19:26.877Z,101845.80
2023-01-29T01:22:55.970Z,101849.02
2023-01-29T01:26:25.273Z,101858.80
2023-01-29T01:29:19.942Z,101858.60
2023-01-29T01:31:49.172Z,101861.77
2023-01-29T01:34:18.197Z,101864.03
2023-01-29T01:37:01.764Z,101869.24
2023-01-29T01:39:30.595Z,101872.66
2023-01-29T01:42:00.308Z,101878.42
2023-01-29T01:45:16.305Z,101881.94
2023-01-29T01:49:03.598Z,101888.00
2023-01-29T01:52:17.284Z,101894.59
2023-01-29T01:55:38.876Z,101904.84
2023-01-29T01:59:23.189Z,101908.92
2023-01-29T02:02:50.967Z,101923.36
2023-01-29T02:06:18.748Z,101923.69
2023-01-29T02:09:52.387Z,101935.09
2023-01-29T02:13:11.638Z,101934.51
2023-01-29T02:16:40.502Z,101936.64
2023-01-29T02:19:52.189Z,101940.88
2023-01-29T02:22:57.371Z,101944.15
2023-01-29T02:26:04.947Z,101949.24
2023-01-29T02:29:45.864Z,101956.15
2023-01-29T02:33:18.232Z,101959.44
2023-01-29T02:36:59.775Z,101968.83
2023-01-29T02:40:31.721Z,101977.35
2023-01-29T02:44:13.212Z,101981.27
2023-01-29T02:47:51.012Z,101981.69
2023-01-29T02:51:20.307Z,101990.40
2023-01-29T02:55:07.281Z,102002.39
2023-01-29T02:58:36.505Z,102007.63
2023-01-29T03:02:05.239Z,102012.20
2023-01-29T03:05:09.524Z,102025.04
2023-01-29T03:08:38.700Z,102027.74
2023-01-29T03:12:07.784Z,102033.75
2023-01-29T03:15:37.001Z,102044.23
2023-01-29T03:19:06.338Z,102053.10
2023-01-29T03:22:30.911Z,102058.52
2023-01-29T03:25:58.208Z,102056.19
2023-01-29T03:29:17.826Z,102058.32
2023-01-29T03:32:45.602Z,102062.35
2023-01-29T03:35:56.589Z,102071.06
2023-01-29T03:38:55.962Z,102078.36
2023-01-29T03:42:11.390Z,102082.86
2023-01-29T03:45:43.511Z,102089.20
2023-01-29T03:49:45.833Z,102094.92
2023-01-29T03:53:36.187Z,102104.13
2023-01-29T03:57:05.153Z,102114.63
2023-01-29T04:00:22.676Z,102124.65
2023-01-29T04:03:51.850Z,102131.20
2023-01-29T04:07:20.596Z,102141.80
2023-01-29T04:10:33.214Z,102153.92
2023-01-29T04:13:32.474Z,102157.18
2023-01-29T04:16:55.203Z,102160.16
2023-01-29T04:20:23.849Z,102160.77
2023-01-29T04:23:41.404Z,102172.41
2023-01-29T04:27:12.341Z,102174.20
2023-01-29T04:31:02.235Z,102184.07
2023-01-29T04:34:46.202Z,102191.17
2023-01-29T04:38:20.646Z,102198.93
2023-01-29T04:41:43.790Z,102207.09
2023-01-29T04:45:11.012Z,102215.15
2023-01-29T04:48:33.217Z,102222.80
2023-01-29T04:52:14.329Z,102226.33
2023-01-29T04:55:43.306Z,102236.32
2023-01-29T04:59:12.469Z,102242.37
2023-01-29T05:02:41.402Z,102256.37
2023-01-29T05:06:03.834Z,102269.43
2023-01-29T05:09:22.855Z,102274.20
2023-01-29T05:12:52.096Z,102279.71
2023-01-29T05:16:21.288Z,102285.11
2023-01-29T05:19:53.390Z,102296.56
2023-01-29T05:23:15.587Z,102304.63
2023-01-29T05:26:42.569Z,102310.77
2023-01-29T05:30:11.743Z,102320.36
2023-01-29T05:33:21.503Z,102325.73
2023-01-29T05:36:50.644Z,102333.87
2023-01-29T05:40:12.790Z,102341.73
2023-01-29T05:43:43.276Z,102351.65
2023-01-29T05:46:49.249Z,102357.80
2023-01-29T05:50:17.355Z,102365.70
2023-01-29T05:53:02.694Z,102375.52
2023-01-29T05:56:12.149Z,102383.29
2023-01-29T05:59:32.361Z,102387.76
2023-01-29T06:02:04.635Z,102391.53
2023-01-29T06:04:53.741Z,102390.65
2023-01-29T06:07:45.991Z,102394.21
2023-01-29T06:11:15.288Z,102401.31
2023-01-29T06:14:28.640Z,102404.84
2023-01-29T06:17:51.381Z,102408.69
2023-01-29T06:21:11.096Z,102412.66
2023-01-29T06:23:52.352Z,102423.47
2023-01-29T06:27:11.567Z,102427.48
2023-01-29T06:30:30.356Z,102428.41
2023-01-29T06:33:59.741Z,102433.95
2023-01-29T06:37:12.112Z,102437.75
2023-01-29T06:40:33.846Z,102440.98
2023-01-29T06:43:27.064Z,102448.27
2023-01-29T06:46:35.945Z,102454.42
2023-01-29T06:49:11.194Z,102459.36
2023-01-29T06:51:45.880Z,102463.59
2023-01-29T06:54:58.077Z,102466.30
2023-01-29T06:58:08.806Z,102464.80
2023-01-29T07:01:38.058Z,102468.06
2023-01-29T07:04:42.873Z,102470.14
2023-01-29T07:08:12.612Z,102475.00
2023-01-29T07:11:41.856Z,102480.11
2023-01-29T07:14:51.338Z,102487.50
2023-01-29T07:17:59.835Z,102495.95
2023-01-29T07:21:28.721Z,102507.80
2023-01-29T07:24:57.937Z,102517.08
2023-01-29T07:28:17.371Z,102524.46
2023-01-29T07:31:46.459Z,102534.51
2023-01-29T07:35:15.659Z,102536.79
2023-01-29T07:38:45.044Z,102537.52
2023-01-29T07:42:14.005Z,102539.27
2023-01-29T07:45:43.258Z,102537.70
2023-01-29T07:48:55.449Z,102534.60
2023-01-29T07:52:24.556Z,102535.26
2023-01-29T07:55:53.463Z,102537.53
2023-01-29T07:59:22.165Z,102543.06
2023-01-29T08:02:24.205Z,102542.56
2023-01-29T08:06:02.233Z,102543.90
2023-01-29T08:09:31.540Z,102542.73
2023-01-29T08:13:00.671Z,102552.12
2023-01-29T08:16:33.388Z,102565.63
2023-01-29T08:19:55.520Z,102572.50
2023-01-29T08:23:27.589Z,102582.14
2023-01-29T08:26:57.127Z,102586.31
2023-01-29T08:30:29.645Z,102598.73
2023-01-29T08:33:58.619Z,102597.11
2023-01-29T08:37:26.751Z,102596.48
2023-01-29T08:40:55.833Z,102608.13
2023-01-29T08:44:18.720Z,102615.09
2023-01-29T08:47:41.503Z,102618.21
2023-01-29T08:51:11.138Z,102621.75
2023-01-29T08:54:40.484Z,102626.96
2023-01-29T08:58:00.161Z,102635.27
2023-01-29T09:01:29.298Z,102633.70
2023-01-29T09:05:01.403Z,102634.08
2023-01-29T09:08:30.868Z,102639.52
2023-01-29T09:11:43.157Z,102650.65
2023-01-29T09:15:12.617Z,102659.15
2023-01-29T09:18:41.873Z,102664.48
2023-01-29T09:22:11.894Z,102663.88
2023-01-29T09:26:01.566Z,102663.67
2023-01-29T09:29:11.280Z,102670.52
2023-01-29T09:36:23.032Z,102676.91
2023-01-29T09:39:43.331Z,102680.96
2023-01-29T09:43:24.799Z,102683.95
2023-01-29T09:46:54.197Z,102681.24
2023-01-29T09:50:20.239Z,102689.60
2023-01-29T09:54:36.471Z,102698.04
2023-01-29T09:57:48.123Z,102705.48
2023-01-29T10:01:20.424Z,102714.58
2023-01-29T10:04:56.179Z,102715.67
2023-01-29T10:08:43.301Z,102721.23
2023-01-29T10:12:18.075Z,102726.30
2023-01-29T10:16:02.166Z,102729.23
2023-01-29T10:19:55.468Z,102742.70
2023-01-29T10:23:28.197Z,102750.17
2023-01-29T10:26:48.800Z,102753.55
2023-01-29T10:30:17.853Z,102761.17
2023-01-29T10:33:27.150Z,102767.30
2023-01-29T10:36:46.228Z,102768.08
2023-01-29T10:40:08.405Z,102775.56
2023-01-29T10:43:26.825Z,102780.40
2023-01-29T10:46:54.858Z,102783.70
2023-01-29T10:50:29.088Z,102788.80
2023-01-29T10:54:07.191Z,102784.52
2023-01-29T10:57:45.176Z,102786.22
2023-01-29T11:01:17.849Z,102791.83
2023-01-29T11:04:40.560Z,102795.37
2023-01-29T11:08:10.046Z,102802.65
2023-01-29T11:11:47.216Z,102806.13
2023-01-29T11:15:10.769Z,102809.34
2023-01-29T11:18:45.881Z,102806.51
2023-01-29T11:22:08.210Z,102815.69
2023-01-29T11:25:52.928Z,102821.59
2023-01-29T11:29:31.981Z,102827.41
2023-01-29T11:33:01.328Z,102830.60
2023-01-29T11:36:30.692Z,102831.84
2023-01-29T11:40:15.056Z,102829.08
2023-01-29T11:43:43.020Z,102827.68
2023-01-29T11:47:14.938Z,102828.92
2023-01-29T11:50:33.791Z,102833.98
2023-01-29T11:54:05.540Z,102836.36
2023-01-29T11:57:34.679Z,102838.50
2023-01-29T12:01:04.129Z,102836.00
2023-01-29T12:04:36.304Z,102830.56
2023-01-29T12:08:05.520Z,102831.91
2023-01-29T12:11:37.788Z,102831.48
2023-01-29T12:15:08.846Z,102834.30
2023-01-29T12:18:40.238Z,102843.86
2023-01-29T12:22:21.604Z,102851.92
2023-01-29T12:25:45.992Z,102857.48
2023-01-29T12:29:33.330Z,102857.79
2023-01-29T12:33:11.587Z,102854.81
2023-01-29T12:36:40.590Z,102856.45
2023-01-29T12:40:09.697Z,102859.64
2023-01-29T12:43:29.343Z,102862.56
2023-01-29T12:47:01.366Z,102867.01
2023-01-29T12:50:30.593Z,102870.44
2023-01-29T12:53:58.612Z,102878.61
2023-01-29T12:57:21.001Z,102877.71
2023-01-29T13:00:50.427Z,102883.02
2023-01-29T13:04:18.269Z,102884.73
2023-01-29T13:07:51.343Z,102882.80
2023-01-29T13:11:20.552Z,102890.50
2023-01-29T13:14:55.354Z,102890.77
2023-01-29T13:18:15.191Z,102889.77
2023-01-29T13:21:36.532Z,102884.50
2023-01-29T13:25:06.093Z,102881.20
2023-01-29T13:28:28.800Z,102880.34
2023-01-29T13:32:16.299Z,102875.58
2023-01-29T13:35:48.702Z,102871.15
2023-01-29T13:39:18.087Z,102869.45
2023-01-29T13:42:46.384Z,102865.63
2023-01-29T13:46:28.034Z,102862.27
2023-01-29T13:49:57.196Z,102859.75
2023-01-29T13:53:41.171Z,102858.55
2023-01-29T13:57:14.987Z,102870.95
2023-01-29T14:00:59.531Z,102896.36
2023-01-29T14:04:29.256Z,102908.46
2023-01-29T14:07:57.037Z,102910.27
2023-01-29T14:11:16.007Z,102899.73
2023-01-29T14:14:29.577Z,102901.46
2023-01-29T14:17:58.525Z,102899.16
2023-01-29T14:21:30.934Z,102903.56
2023-01-29T14:24:56.348Z,102902.00
2023-01-29T14:28:25.883Z,102904.11
2023-01-29T14:31:48.670Z,102903.23
2023-01-29T14:35:23.366Z,102904.70
2023-01-29T14:38:55.557Z,102900.36
2023-01-29T14:42:27.905Z,102905.74
2023-01-29T14:46:06.554Z,102915.23
2023-01-29T14:49:28.889Z,102922.90
2023-01-29T14:52:51.968Z,102923.59
2023-01-29T14:56:04.917Z,102927.25
2023-01-29T14:59:55.499Z,102931.80
2023-01-29T15:03:31.023Z,102940.03
2023-01-29T15:06:51.488Z,102953.30
2023-01-29T15:10:26.776Z,102956.08
2023-01-29T15:13:57.373Z,102965.46
2023-01-29T15:17:56.718Z,102964.73
2023-01-29T15:21:28.632Z,102961.15
2023-01-29T15:25:06.359Z,102965.55
2023-01-29T15:28:35.021Z,102969.60
2023-01-29T15:32:06.037Z,102973.53
2023-01-29T15:35:35.360Z,102981.39
2023-01-29T15:39:07.385Z,102985.43
2023-01-29T15:42:47.729Z,102981.11
2023-01-29T15:46:25.161Z,102987.96
2023-01-29T15:49:42.344Z,103005.75
2023-01-29T15:53:12.146Z,103012.28
2023-01-29T15:56:41.181Z,103015.84
2023-01-29T16:00:10.449Z,103018.95
2023-01-29T16:03:39.556Z,103028.14
2023-01-29T16:06:51.887Z,103035.48
2023-01-29T16:10:10.595Z,103040.93
2023-01-29T16:13:32.628Z,103041.74
2023-01-29T16:16:57.092Z,103044.73
2023-01-29T16:20:29.367Z,103049.90
2023-01-29T16:23:58.074Z,103060.46
2023-01-29T16:27:27.471Z,103064.54
2023-01-29T16:30:59.992Z,103060.63
2023-01-29T16:34:33.744Z,103067.96
2023-01-29T16:38:05.181Z,103067.71
2023-01-29T16:41:46.810Z,103076.42
2023-01-29T16:45:19.456Z,103080.89
2023-01-29T16:49:00.991Z,103085.65
2023-01-29T16:52:33.273Z,103089.77
2023-01-29T16:55:53.498Z,103094.98
2023-01-29T16:59:55.336Z,103097.86
2023-01-29T17:03:31.984Z,103106.86
2023-01-29T17:07:01.467Z,103111.95
2023-01-29T17:10:33.573Z,103116.35
2023-01-29T17:14:03.073Z,103120.41
2023-01-29T17:17:35.325Z,103124.16
2023-01-29T17:21:04.675Z,103123.23
2023-01-29T17:24:22.189Z,103128.21
2023-01-29T17:27:56.868Z,103124.74
2023-01-29T17:32:04.754Z,103123.46
2023-01-29T17:35:15.942Z,103126.58
2023-01-29T17:38:45.232Z,103127.23
2023-01-29T17:42:08.180Z,103131.15
2023-01-29T17:45:37.317Z,103129.77
2023-01-29T17:49:06.576Z,103137.48
2023-01-29T17:52:34.517Z,103137.25
2023-01-29T17:56:03.717Z,103141.04
2023-01-29T17:59:32.775Z,103145.66
2023-01-29T18:03:01.543Z,103143.74
2023-01-29T18:06:23.255Z,103148.59
2023-01-29T18:09:35.120Z,103154.96
2023-01-29T18:12:58.092Z,103158.24
2023-01-29T18:16:27.176Z,103162.61
2023-01-29T18:19:33.587Z,103163.15
2023-01-29T18:22:27.831Z,103164.83
2023-01-29T18:25:46.801Z,103166.11
2023-01-29T18:29:07.141Z,103173.34
2023-01-29T18:32:25.164Z,103176.67
2023-01-29T18:35:52.780Z,103183.81
2023-01-29T18:39:23.149Z,103182.56
2023-01-29T18:42:52.520Z,103182.63
2023-01-29T18:46:20.985Z,103175.99
2023-01-29T18:49:40.314Z,103171.82
2023-01-29T18:53:02.324Z,103167.34
2023-01-29T18:56:16.271Z,103165.21
2023-01-29T18:59:44.838Z,103165.55
2023-01-29T19:03:15.152Z,103163.02
2023-01-29T19:06:27.404Z,103170.42
2023-01-29T19:09:56.491Z,103174.31
2023-01-29T19:13:24.482Z,103172.83
2023-01-29T19:16:43.152Z,103171.33
2023-01-29T19:20:04.627Z,103167.27
2023-01-29T19:23:33.401Z,103167.46
2023-01-29T19:27:02.652Z,103159.10
2023-01-29T19:30:14.764Z,103152.36
2023-01-29T19:33:43.645Z,103151.55
2023-01-29T19:37:12.242Z,103157.08
2023-01-29T19:40:40.973Z,103159.50
2023-01-29T19:44:10.532Z,103158.48
2023-01-29T19:47:39.963Z,103152.18
2023-01-29T19:51:09.468Z,103146.80
2023-01-29T19:54:31.600Z,103141.05
2023-01-29T19:57:53.330Z,103144.35
2023-01-29T20:01:08.507Z,103138.05
2023-01-29T20:04:26.997Z,103133.20
2023-01-29T20:07:53.017Z,103127.02
2023-01-29T20:11:22.456Z,103118.81
2023-01-29T20:14:50.958Z,103117.34
2023-01-29T20:18:20.249Z,103115.63
2023-01-29T20:21:49.505Z,103110.02
2023-01-29T20:25:02.074Z,103097.22
2023-01-29T20:28:31.729Z,103086.78
2023-01-29T20:31:50.606Z,103081.93
2023-01-29T20:34:54.250Z,103079.16
2023-01-29T20:38:23.172Z,103082.13
2023-01-29T20:41:43.074Z,103085.88
2023-01-29T20:44:38.068Z,103083.33
2023-01-29T20:48:06.339Z,103077.77
2023-01-29T20:51:35.465Z,103078.09
2023-01-29T20:55:04.967Z,103083.92
2023-01-29T20:58:34.088Z,103083.70
2023-01-29T21:02:03.379Z,103087.48
2023-01-29T21:05:33.101Z,103088.35
2023-01-29T21:08:39.099Z,103085.48
2023-01-29T21:12:07.979Z,103086.40
2023-01-29T21:15:36.822Z,103085.19
2023-01-29T21:19:05.973Z,103085.52
2023-01-29T21:22:18.371Z,103082.39
2023-01-29T21:25:47.266Z,103086.05
2023-01-29T21:29:16.061Z,103079.98
2023-01-29T21:32:35.965Z,103077.63
2023-01-29T21:35:57.377Z,103074.74
2023-01-29T21:39:26.055Z,103076.67
2023-01-29T21:42:35.748Z,103077.55
2023-01-29T21:46:03.581Z,103072.52
2023-01-29T21:49:32.068Z,103070.17
2023-01-29T21:53:00.817Z,103057.66
2023-01-29T21:56:29.677Z,103047.64
2023-01-29T21:59:41.762Z,103047.66
2023-01-29T22:03:14.496Z,103041.92
2023-01-29T22:06:43.701Z,103034.34
2023-01-29T22:10:12.752Z,103032.21
2023-01-29T22:13:22.628Z,103030.52
2023-01-29T22:16:52.169Z,103029.63
2023-01-29T22:20:07.285Z,103022.89
2023-01-29T22:23:36.539Z,103011.83
2023-01-29T22:27:06.034Z,102999.77
2023-01-29T22:30:35.562Z,103002.52
2023-01-29T22:33:28.017Z,103007.72
2023-01-29T22:36:57.017Z,103001.99
2023-01-29T22:40:26.318Z,102995.05
2023-01-29T22:43:55.464Z,102992.15
2023-01-29T22:47:24.469Z,102992.85
2023-01-29T22:50:44.150Z,102997.55
2023-01-29T22:54:13.332Z,102996.30
2023-01-29T22:57:30.948Z,102988.11
2023-01-29T23:00:53.299Z,102986.66
2023-01-29T23:04:22.682Z,102993.45
2023-01-29T23:07:51.943Z,102996.10
2023-01-29T23:11:20.840Z,102995.42
2023-01-29T23:14:43.141Z,102997.63
2023-01-29T23:18:04.279Z,102996.60
2023-01-29T23:21:27.827Z,102999.98
2023-01-29T23:24:56.893Z,103004.08
2023-01-29T23:28:16.289Z,103007.31
2023-01-29T23:31:35.807Z,103000.09
2023-01-29T23:35:04.861Z,102997.60
2023-01-29T23:38:33.961Z,102993.48
2023-01-29T23:41:52.879Z,102997.95
2023-01-29T23:45:22.033Z,102992.43
2023-01-29T23:48:51.175Z,102992.74
2023-01-29T23:52:19.902Z,102987.02
2023-01-29T23:55:48.846Z,102987.95
2023-01-29T23:59:17.928Z,102987.05
